createdAt,value
2022-10-06T04:01:21.114Z,63.97
2022-10-06T04:03:56.529Z,64.13
2022-10-06T04:06:26.228Z,64.09
2022-10-06T04:08:56.067Z,64.08
2022-10-06T04:11:26.889Z,64.07
2022-10-06T04:13:58.264Z,64.27
2022-10-06T04:16:31.736Z,64.19
2022-10-06T04:19:02.739Z,64.28
2022-10-06T04:21:33.744Z,64.29
2022-10-06T04:24:03.357Z,64.36
2022-10-06T04:26:35.332Z,64.32
2022-10-06T04:29:05.132Z,64.27
2022-10-06T04:31:37.143Z,64.37
2022-10-06T04:34:08.227Z,64.49
2022-10-06T04:36:39.982Z,64.32
2022-10-06T04:39:12.452Z,64.40
2022-10-06T04:41:48.228Z,64.55
2022-10-06T04:44:22.197Z,64.49
2022-10-06T04:46:51.960Z,64.51
2022-10-06T04:49:22.315Z,64.52
2022-10-06T04:51:54.817Z,64.63
2022-10-06T04:54:24.325Z,64.70
2022-10-06T04:56:58.700Z,64.75
2022-10-06T04:59:47.723Z,64.66
2022-10-06T05:02:19.938Z,64.83
2022-10-06T05:04:51.884Z,64.90
2022-10-06T05:07:21.508Z,64.83
2022-10-06T05:09:49.654Z,64.87
2022-10-06T05:12:19.125Z,64.81
2022-10-06T05:14:48.405Z,64.88
2022-10-06T05:17:17.828Z,64.92
2022-10-06T05:19:49.642Z,64.89
2022-10-06T05:22:19.232Z,64.91
2022-10-06T05:24:47.661Z,64.81
2022-10-06T05:27:16.495Z,64.95
2022-10-06T05:29:45.486Z,64.85
2022-10-06T05:32:14.624Z,64.80
2022-10-06T05:34:44.080Z,64.73
2022-10-06T05:37:12.831Z,65.01
2022-10-06T05:39:42.013Z,64.91
2022-10-06T05:42:11.085Z,64.94
2022-10-06T05:44:40.394Z,65.02
2022-10-06T05:47:12.783Z,64.96
2022-10-06T05:49:41.958Z,65.10
2022-10-06T05:52:11.125Z,65.01
2022-10-06T05:54:40.539Z,65.05
2022-10-06T05:57:10.302Z,65.05
2022-10-06T05:59:39.358Z,65.11
2022-10-06T06:02:09.820Z,64.95
2022-10-06T06:04:41.021Z,64.89
2022-10-06T06:07:10.169Z,64.95
2022-10-06T06:09:41.105Z,65.07
2022-10-06T06:12:10.065Z,64.89
2022-10-06T06:15:04.552Z,64.97
2022-10-06T06:17:39.108Z,65.23
2022-10-06T06:20:09.056Z,65.15
2022-10-06T06:22:38.382Z,65.18
2022-10-06T06:25:08.548Z,65.11
2022-10-06T06:27:37.474Z,65.03
2022-10-06T06:30:07.015Z,65.09
2022-10-06T06:32:37.153Z,65.12
2022-10-06T06:35:06.902Z,65.06
2022-10-06T06:37:36.017Z,64.95
2022-10-06T06:40:04.609Z,65.01
2022-10-06T06:42:37.221Z,65.10
2022-10-06T06:45:27.099Z,65.10
2022-10-06T06:48:16.514Z,65.12
2022-10-06T06:50:46.358Z,65.35
2022-10-06T06:53:16.436Z,65.30
2022-10-06T06:55:50.180Z,65.24
2022-10-06T06:58:20.942Z,65.30
2022-10-06T07:00:50.401Z,65.26
2022-10-06T07:03:38.491Z,65.52
2022-10-06T07:06:11.823Z,65.44
2022-10-06T07:08:45.795Z,65.36
2022-10-06T07:11:22.596Z,65.28
2022-10-06T07:13:52.431Z,65.52
2022-10-06T07:16:41.648Z,65.46
2022-10-06T07:19:31.089Z,65.34
2022-10-06T07:22:20.243Z,65.39
2022-10-06T07:25:07.359Z,65.43
2022-10-06T07:27:38.452Z,65.27
2022-10-06T07:30:08.177Z,65.38
2022-10-06T07:32:38.173Z,65.39
2022-10-06T07:35:07.296Z,65.29
2022-10-06T07:37:37.202Z,65.35
2022-10-06T07:40:07.330Z,65.33
2022-10-06T07:42:49.773Z,65.46
2022-10-06T07:45:45.235Z,65.40
2022-10-06T07:48:49.890Z,65.27
2022-10-06T07:51:19.656Z,65.40
2022-10-06T07:53:51.403Z,65.33
2022-10-06T07:56:26.065Z,65.18
2022-10-06T07:58:59.234Z,65.02
2022-10-06T08:01:30.235Z,65.09
2022-10-06T08:03:59.300Z,65.26
2022-10-06T08:06:27.977Z,65.09
2022-10-06T08:08:56.811Z,65.08
2022-10-06T08:11:25.519Z,64.99
2022-10-06T08:13:53.887Z,64.88
2022-10-06T08:16:23.537Z,64.74
2022-10-06T08:18:53.785Z,64.61
2022-10-06T08:21:25.656Z,64.65
2022-10-06T08:23:55.212Z,64.56
2022-10-06T08:26:25.790Z,64.65
2022-10-06T08:28:58.384Z,64.69
2022-10-06T08:31:27.468Z,64.63
2022-10-06T08:33:57.477Z,64.65
2022-10-06T08:36:31.473Z,64.67
2022-10-06T08:39:01.202Z,64.64
2022-10-06T08:41:40.277Z,64.58
2022-10-06T08:44:17.153Z,64.48
2022-10-06T08:47:01.274Z,64.41
2022-10-06T08:49:40.845Z,64.57
2022-10-06T08:52:32.659Z,64.52
2022-10-06T08:55:07.123Z,64.51
2022-10-06T08:57:54.247Z,64.38
2022-10-06T09:00:23.149Z,64.32
2022-10-06T09:02:52.494Z,64.27
2022-10-06T09:05:26.715Z,64.19
2022-10-06T09:08:14.441Z,64.06
2022-10-06T09:11:01.448Z,63.99
2022-10-06T09:13:36.480Z,63.86
2022-10-06T09:16:10.627Z,63.77
2022-10-06T09:19:06.742Z,63.72
2022-10-06T09:21:42.118Z,63.69
2022-10-06T09:24:36.669Z,63.55
2022-10-06T09:27:20.273Z,63.45
2022-10-06T09:29:49.332Z,63.46
2022-10-06T09:32:23.040Z,63.41
2022-10-06T09:34:56.069Z,63.52
2022-10-06T09:37:24.843Z,63.32
2022-10-06T09:39:54.894Z,63.23
2022-10-06T09:42:26.546Z,63.20
2022-10-06T09:44:59.380Z,63.13
2022-10-06T09:47:34.438Z,62.94
2022-10-06T09:50:17.927Z,62.99
2022-10-06T09:52:59.939Z,62.78
2022-10-06T09:55:31.198Z,62.71
2022-10-06T09:58:01.010Z,62.64
2022-10-06T10:00:48.140Z,62.68
2022-10-06T10:03:17.168Z,62.51
2022-10-06T10:05:52.812Z,62.40
2022-10-06T10:08:25.373Z,62.31
2022-10-06T10:11:29.592Z,62.45
2022-10-06T10:13:59.536Z,62.33
2022-10-06T10:16:29.397Z,62.25
2022-10-06T10:18:59.149Z,62.26
2022-10-06T10:21:34.356Z,62.14
2022-10-06T10:24:06.890Z,62.19
2022-10-06T10:26:51.284Z,61.97
2022-10-06T10:29:23.213Z,61.39
2022-10-06T10:32:03.129Z,61.30
2022-10-06T10:34:35.089Z,61.16
2022-10-06T10:37:16.662Z,61.17
2022-10-06T10:39:55.335Z,60.95
2022-10-06T10:42:24.586Z,60.89
2022-10-06T10:44:55.599Z,60.74
2022-10-06T10:47:35.597Z,60.76
2022-10-06T10:50:13.938Z,60.85
2022-10-06T10:52:44.283Z,60.86
2022-10-06T11:38:30.749Z,58.75
2022-10-06T11:41:21.890Z,58.72
2022-10-06T11:44:07.698Z,58.55
2022-10-06T11:46:39.200Z,58.50
2022-10-06T11:49:34.877Z,58.52
2022-10-06T11:52:08.816Z,58.62
2022-10-06T11:54:46.304Z,58.59
2022-10-06T11:57:26.294Z,58.59
2022-10-06T12:00:04.011Z,58.28
2022-10-06T12:02:34.939Z,58.33
2022-10-06T12:05:54.705Z,58.04
2022-10-06T12:08:12.106Z,57.99
2022-10-06T12:10:48.548Z,57.68
2022-10-06T12:19:22.166Z,57.49
2022-10-06T12:21:53.673Z,57.50
2022-10-06T12:24:25.752Z,57.28
2022-10-06T12:27:12.051Z,57.31
2022-10-06T12:29:56.847Z,57.24
2022-10-06T12:32:40.088Z,57.21
2022-10-06T12:35:24.874Z,56.99
2022-10-06T12:37:54.744Z,56.91
2022-10-06T12:40:43.087Z,56.98
2022-10-06T12:43:19.976Z,56.84
2022-10-06T12:45:54.859Z,56.87
2022-10-06T12:48:22.734Z,56.72
2022-10-06T12:50:53.291Z,56.81
2022-10-06T12:53:24.211Z,56.70
2022-10-06T12:55:54.835Z,56.70
2022-10-06T12:58:32.410Z,56.55
2022-10-06T13:01:01.644Z,56.54
2022-10-06T13:03:29.768Z,56.44
2022-10-06T13:06:03.094Z,56.29
2022-10-06T13:08:31.715Z,56.32
2022-10-06T13:11:10.757Z,56.07
2022-10-06T13:13:38.839Z,56.20
2022-10-06T13:16:09.480Z,56.26
2022-10-06T13:18:36.312Z,56.28
2022-10-06T13:21:03.259Z,56.18
2022-10-06T13:23:30.431Z,55.89
2022-10-06T13:26:08.280Z,55.61
2022-10-06T13:28:44.898Z,55.26
2022-10-06T13:31:14.596Z,55.08
2022-10-06T13:33:42.974Z,54.95
2022-10-06T13:36:11.201Z,54.91
2022-10-06T13:38:39.540Z,54.84
2022-10-06T13:41:17.206Z,54.68
2022-10-06T13:43:47.438Z,54.79
2022-10-06T13:46:15.659Z,54.78
2022-10-06T13:48:45.218Z,54.73
2022-10-06T13:51:21.044Z,54.44
2022-10-06T13:53:48.305Z,54.41
2022-10-06T13:56:36.123Z,54.39
2022-10-06T13:59:15.731Z,54.53
2022-10-06T14:01:43.125Z,54.58
2022-10-06T14:04:13.069Z,54.49
2022-10-06T14:06:57.236Z,54.55
2022-10-06T14:09:26.039Z,54.40
2022-10-06T14:11:54.634Z,54.43
2022-10-06T14:14:21.912Z,54.38
2022-10-06T14:16:50.319Z,54.31
2022-10-06T14:19:30.018Z,54.30
2022-10-06T14:21:57.687Z,54.30
2022-10-06T14:24:28.986Z,54.11
2022-10-06T14:27:01.183Z,54.08
2022-10-06T14:29:28.814Z,54.04
2022-10-06T14:32:06.647Z,53.95
2022-10-06T14:34:34.173Z,54.01
2022-10-06T14:37:01.747Z,53.88
2022-10-06T14:39:28.972Z,53.83
2022-10-06T14:41:56.283Z,53.93
2022-10-06T14:44:23.630Z,53.96
2022-10-06T14:46:50.526Z,53.99
2022-10-06T14:49:17.612Z,53.86
2022-10-06T14:51:44.843Z,53.77
2022-10-06T14:54:13.163Z,53.77
2022-10-06T14:56:41.608Z,53.81
2022-10-06T14:59:12.097Z,53.64
2022-10-06T15:01:42.463Z,53.62
2022-10-06T15:04:11.414Z,53.62
2022-10-06T15:06:58.790Z,53.66
2022-10-06T15:09:30.472Z,53.74
2022-10-06T15:11:59.464Z,53.75
2022-10-06T15:14:29.818Z,53.62
2022-10-06T15:16:59.696Z,53.72
2022-10-06T15:19:26.915Z,53.66
2022-10-06T15:21:54.145Z,53.73
2022-10-06T15:24:22.064Z,53.75
2022-10-06T15:27:08.008Z,53.86
2022-10-06T15:29:34.937Z,53.76
2022-10-06T15:32:03.515Z,53.81
2022-10-06T15:34:33.229Z,53.77
2022-10-06T15:37:00.619Z,53.95
2022-10-06T15:39:29.712Z,53.85
2022-10-06T15:41:57.993Z,53.90
2022-10-06T15:44:26.391Z,53.83
2022-10-06T15:46:55.141Z,53.91
2022-10-06T15:49:21.956Z,54.17
2022-10-06T15:51:50.473Z,54.06
2022-10-06T15:54:40.468Z,54.00
2022-10-06T15:57:09.123Z,54.03
2022-10-06T15:59:36.666Z,54.23
2022-10-06T16:02:07.157Z,54.24
2022-10-06T16:04:35.286Z,54.08
2022-10-06T16:07:03.455Z,54.25
2022-10-06T16:09:32.636Z,54.29
2022-10-06T16:12:17.173Z,54.21
2022-10-06T16:14:54.711Z,54.39
2022-10-06T16:17:21.578Z,54.12
2022-10-06T16:19:48.535Z,54.29
2022-10-06T16:22:17.057Z,54.50
2022-10-06T16:24:44.410Z,54.28
2022-10-06T16:27:12.777Z,54.33
2022-10-06T16:29:40.009Z,54.48
2022-10-06T16:32:07.159Z,54.70
2022-10-06T16:34:34.808Z,54.62
2022-10-06T16:37:02.572Z,54.65
2022-10-06T16:39:30.098Z,54.64
2022-10-06T16:41:57.224Z,54.68
2022-10-06T16:44:23.872Z,54.74
2022-10-06T16:46:51.331Z,54.68
2022-10-06T16:49:19.727Z,54.74
2022-10-06T16:51:47.481Z,54.90
2022-10-06T16:54:17.088Z,54.88
2022-10-06T16:56:46.554Z,54.90
2022-10-06T16:59:18.049Z,54.92
2022-10-06T17:01:45.907Z,55.09
2022-10-06T17:04:18.159Z,54.96
2022-10-06T17:06:46.893Z,55.08
2022-10-06T17:09:15.381Z,55.05
2022-10-06T17:11:43.972Z,55.18
2022-10-06T17:14:11.186Z,55.22
2022-10-06T17:16:40.451Z,55.34
2022-10-06T17:19:09.744Z,55.40
2022-10-06T17:21:46.863Z,55.42
2022-10-06T17:24:20.111Z,55.39
2022-10-06T17:26:49.015Z,55.45
2022-10-06T17:29:19.018Z,55.49
2022-10-06T17:31:48.023Z,55.56
2022-10-06T17:34:20.466Z,55.48
2022-10-06T17:36:51.161Z,55.65
2022-10-06T17:39:24.635Z,55.67
2022-10-06T17:41:53.557Z,55.73
2022-10-06T17:44:27.644Z,55.83
2022-10-06T17:46:56.656Z,55.74
2022-10-06T17:49:24.367Z,55.74
2022-10-06T17:51:53.476Z,55.92
2022-10-06T17:54:22.133Z,55.90
2022-10-06T17:56:50.286Z,56.05
2022-10-06T17:59:19.027Z,55.94
2022-10-06T18:01:46.419Z,56.03
2022-10-06T18:04:17.085Z,55.97
2022-10-06T18:06:46.119Z,56.20
2022-10-06T18:09:21.429Z,56.15
2022-10-06T18:11:56.926Z,56.28
2022-10-06T18:14:44.358Z,56.30
2022-10-06T18:21:02.228Z,56.24
2022-10-06T18:23:31.300Z,56.33
2022-10-06T18:25:58.747Z,56.36
2022-10-06T18:28:35.801Z,56.58
2022-10-06T18:31:10.781Z,56.64
2022-10-06T18:36:28.732Z,56.79
2022-10-06T18:38:59.983Z,56.78
2022-10-06T18:41:30.507Z,56.71
2022-10-06T18:44:02.801Z,56.69
2022-10-06T18:50:15.520Z,56.81
2022-10-06T18:53:18.567Z,56.81
2022-10-06T18:55:46.332Z,56.90
2022-10-06T19:02:16.892Z,57.11
2022-10-06T19:05:18.760Z,56.99
2022-10-06T19:07:52.361Z,57.03
2022-10-06T19:10:25.475Z,57.12
2022-10-06T19:13:29.244Z,57.22
2022-10-06T19:15:57.347Z,57.27
2022-10-06T19:18:25.190Z,57.31
2022-10-06T19:20:54.574Z,57.23
2022-10-06T19:23:21.646Z,57.40
2022-10-06T19:26:02.210Z,57.34
2022-10-06T19:28:31.916Z,57.42
2022-10-06T19:31:01.520Z,57.29
2022-10-06T19:33:29.837Z,57.46
2022-10-06T19:35:57.422Z,57.74
2022-10-06T19:38:25.039Z,57.71
2022-10-06T19:40:52.783Z,57.72
2022-10-06T19:43:20.217Z,57.74
2022-10-06T19:45:57.527Z,57.80
2022-10-06T19:48:29.429Z,57.86
2022-10-06T19:51:14.980Z,57.86
2022-10-06T19:53:48.122Z,57.91
2022-10-06T19:56:16.638Z,57.78
2022-10-06T19:58:43.526Z,57.94
2022-10-06T20:01:12.482Z,57.84
2022-10-06T20:03:41.132Z,57.99
2022-10-06T20:06:11.189Z,57.93
2022-10-06T20:08:43.684Z,57.99
2022-10-06T20:11:14.524Z,57.98
2022-10-06T20:13:43.511Z,58.01
2022-10-06T20:16:12.811Z,58.02
2022-10-06T20:18:50.969Z,58.12
2022-10-06T20:21:23.353Z,58.14
2022-10-06T20:23:51.631Z,58.32
2022-10-06T20:26:19.776Z,58.30
2022-10-06T20:28:47.551Z,58.08
2022-10-06T20:31:22.121Z,58.05
2022-10-06T20:33:55.861Z,58.19
2022-10-06T20:36:25.395Z,58.44
2022-10-06T20:39:11.964Z,58.28
2022-10-06T20:41:40.096Z,58.26
2022-10-06T20:44:07.898Z,58.42
2022-10-06T20:46:40.253Z,58.41
2022-10-06T20:49:09.814Z,58.54
2022-10-06T20:51:44.982Z,58.67
2022-10-06T20:54:16.490Z,58.52
2022-10-06T20:56:50.725Z,58.78
2022-10-06T21:03:21.523Z,58.73
2022-10-06T21:05:55.385Z,58.48
2022-10-06T21:08:23.549Z,58.74
2022-10-06T21:10:57.469Z,58.90
2022-10-06T21:13:25.608Z,58.62
2022-10-06T21:15:56.256Z,58.68
2022-10-06T21:18:29.000Z,58.85
2022-10-06T21:21:00.715Z,58.82
2022-10-06T21:23:29.031Z,58.75
2022-10-06T21:25:56.852Z,59.05
2022-10-06T21:28:25.951Z,58.94
2022-10-06T21:30:57.499Z,59.02
2022-10-06T21:33:26.522Z,59.23
2022-10-06T21:36:01.454Z,58.98
2022-10-06T21:38:30.213Z,59.28
2022-10-06T21:41:02.091Z,59.04
2022-10-06T21:43:29.527Z,59.21
2022-10-06T21:46:23.978Z,59.16
2022-10-06T21:48:56.050Z,59.40
2022-10-06T21:51:27.379Z,59.43
2022-10-06T21:53:57.638Z,59.63
2022-10-06T21:56:30.612Z,59.35
2022-10-06T21:59:01.097Z,59.41
2022-10-06T22:01:33.962Z,59.46
2022-10-06T22:04:02.220Z,59.62
2022-10-06T22:06:30.287Z,59.55
2022-10-06T22:08:59.453Z,59.53
2022-10-06T22:11:30.637Z,59.39
2022-10-06T22:14:01.339Z,59.68
2022-10-06T22:16:30.398Z,59.78
2022-10-06T22:18:58.564Z,59.67
2022-10-06T22:21:27.306Z,59.64
2022-10-06T22:23:55.826Z,59.80
2022-10-06T22:26:24.067Z,59.70
2022-10-06T22:28:52.801Z,59.58
2022-10-06T22:31:25.610Z,59.85
2022-10-06T22:33:58.661Z,59.86
2022-10-06T22:36:26.901Z,59.81
2022-10-06T22:38:55.023Z,59.81
2022-10-06T22:41:23.025Z,59.99
2022-10-06T22:43:52.758Z,60.21
2022-10-06T22:46:20.711Z,59.95
2022-10-06T22:48:48.063Z,59.99
2022-10-06T22:51:15.353Z,59.95
2022-10-06T22:53:42.826Z,60.00
2022-10-06T22:56:10.446Z,60.22
2022-10-06T22:58:39.246Z,60.22
